createdAt,value
2022-11-02T00:00:54.206Z,3.71
2022-11-02T00:01:56.176Z,3.70
2022-11-02T00:02:58.714Z,3.65
2022-11-02T00:04:00.702Z,3.63
2022-11-02T00:05:02.858Z,3.63
2022-11-02T00:06:05.806Z,3.73
2022-11-02T00:07:07.695Z,3.79
2022-11-02T00:08:10.712Z,3.82
2022-11-02T00:09:12.699Z,3.87
2022-11-02T00:10:16.792Z,3.89
2022-11-02T00:11:18.680Z,3.96
2022-11-02T00:12:21.496Z,3.98
2022-11-02T00:13:23.480Z,3.97
2022-11-02T00:14:25.431Z,3.98
2022-11-02T00:15:30.421Z,3.96
2022-11-02T00:16:32.837Z,3.98
2022-11-02T00:17:36.986Z,3.95
2022-11-02T00:18:40.309Z,3.93
2022-11-02T00:19:42.233Z,3.89
2022-11-02T00:20:44.562Z,3.83
2022-11-02T00:21:46.838Z,3.81
2022-11-02T00:22:52.611Z,3.82
2022-11-02T00:23:57.165Z,3.76
2022-11-02T00:25:02.110Z,3.63
2022-11-02T00:26:04.401Z,3.72
2022-11-02T00:27:07.018Z,3.70
2022-11-02T00:28:09.666Z,3.70
2022-11-02T00:29:12.829Z,3.69
2022-11-02T00:30:15.187Z,3.68
2022-11-02T00:31:17.216Z,3.66
2022-11-02T00:32:19.305Z,3.68
2022-11-02T00:33:21.202Z,3.62
2022-11-02T00:34:24.020Z,3.64
2022-11-02T00:35:26.992Z,3.70
2022-11-02T00:36:28.978Z,3.74
2022-11-02T00:37:30.879Z,3.72
2022-11-02T00:38:32.909Z,3.70
2022-11-02T00:39:34.778Z,3.68
2022-11-02T00:40:37.376Z,3.67
2022-11-02T00:41:39.367Z,3.68
2022-11-02T00:42:41.265Z,3.70
2022-11-02T00:43:43.249Z,3.61
2022-11-02T00:44:45.137Z,3.56
2022-11-02T00:45:47.033Z,3.55
2022-11-02T00:46:49.020Z,3.57
2022-11-02T00:47:50.902Z,3.68
2022-11-02T00:48:52.797Z,3.74
2022-11-02T00:49:55.347Z,3.85
2022-11-02T00:50:57.392Z,3.83
2022-11-02T00:51:59.270Z,3.93
2022-11-02T00:53:01.142Z,3.91
2022-11-02T00:54:03.036Z,3.89
2022-11-02T00:55:06.361Z,3.90
2022-11-02T00:56:09.117Z,3.81
2022-11-02T00:57:10.994Z,3.67
2022-11-02T00:58:15.000Z,3.58
2022-11-02T00:59:16.903Z,3.52
2022-11-02T01:00:19.643Z,3.50
2022-11-02T01:01:21.828Z,3.42
2022-11-02T01:02:24.187Z,3.42
2022-11-02T01:03:26.324Z,3.38
2022-11-02T01:04:29.555Z,3.43
2022-11-02T01:05:31.452Z,3.46
2022-11-02T01:06:33.442Z,3.42
2022-11-02T01:07:35.937Z,3.36
2022-11-02T01:08:38.149Z,3.39
2022-11-02T01:09:40.803Z,3.37
2022-11-02T01:10:45.635Z,3.34
2022-11-02T01:11:46.988Z,3.33
2022-11-02T01:12:49.560Z,3.32
2022-11-02T01:13:52.479Z,3.29
2022-11-02T01:14:55.228Z,3.24
2022-11-02T01:15:57.117Z,3.09
2022-11-02T01:16:59.150Z,3.16
2022-11-02T01:18:01.175Z,3.19
2022-11-02T01:19:03.367Z,3.17
2022-11-02T01:20:06.439Z,3.14
2022-11-02T01:21:08.453Z,3.13
2022-11-02T01:22:11.098Z,3.12
2022-11-02T01:23:13.004Z,3.12
2022-11-02T01:24:14.889Z,3.12
2022-11-02T01:25:16.879Z,3.12
2022-11-02T01:26:21.247Z,3.14
2022-11-02T01:27:23.530Z,3.15
2022-11-02T01:28:26.343Z,3.16
2022-11-02T01:29:28.237Z,3.18
2022-11-02T01:30:30.237Z,3.22
2022-11-02T01:31:32.105Z,3.30
2022-11-02T01:32:34.686Z,3.36
2022-11-02T01:33:40.137Z,3.40
2022-11-02T01:34:42.050Z,3.39
2022-11-02T01:35:45.227Z,3.44
2022-11-02T01:36:47.368Z,3.44
2022-11-02T01:37:49.269Z,3.42
2022-11-02T01:38:51.300Z,3.40
2022-11-02T01:39:53.179Z,3.45
2022-11-02T01:40:55.147Z,3.40
2022-11-02T01:41:57.017Z,3.46
2022-11-02T01:42:58.910Z,3.47
2022-11-02T01:44:05.005Z,3.49
2022-11-02T01:45:09.550Z,3.49
2022-11-02T01:46:15.853Z,3.54
2022-11-02T01:47:30.313Z,3.55
2022-11-02T01:48:48.273Z,3.55
2022-11-02T01:49:56.495Z,3.57
2022-11-02T01:51:03.158Z,3.57
2022-11-02T01:52:18.081Z,3.55
2022-11-02T01:53:20.479Z,3.59
2022-11-02T01:54:26.392Z,3.59
2022-11-02T01:55:32.121Z,3.62
2022-11-02T01:56:35.446Z,3.59
2022-11-02T01:57:40.815Z,3.62
2022-11-02T01:58:46.523Z,3.57
2022-11-02T02:00:01.530Z,3.57
2022-11-02T02:01:03.630Z,3.56
2022-11-02T02:02:09.393Z,3.56
2022-11-02T02:03:17.219Z,3.57
2022-11-02T02:04:20.176Z,3.53
2022-11-02T02:05:24.152Z,3.53
2022-11-02T02:06:27.225Z,3.46
2022-11-02T02:07:31.242Z,3.40
2022-11-02T02:08:36.766Z,3.39
2022-11-02T02:09:39.732Z,3.39
2022-11-02T02:10:41.771Z,3.31
2022-11-02T02:11:43.676Z,3.31
2022-11-02T02:12:46.909Z,3.31
2022-11-02T02:13:49.246Z,3.29
2022-11-02T02:14:52.835Z,3.26
2022-11-02T02:16:08.859Z,3.21
2022-11-02T02:17:43.573Z,3.14
2022-11-02T02:20:11.346Z,3.20
2022-11-02T02:21:26.471Z,3.07
2022-11-02T02:22:53.602Z,3.07
2022-11-02T02:24:17.093Z,3.07
2022-11-02T02:25:28.970Z,3.05
2022-11-02T02:26:52.985Z,2.99
2022-11-02T02:28:21.912Z,2.98
2022-11-02T02:29:39.650Z,2.98
2022-11-02T02:30:48.218Z,3.00
2022-11-02T02:31:57.548Z,3.00
2022-11-02T02:34:26.671Z,2.97
2022-11-02T02:35:38.567Z,2.97
2022-11-02T02:36:50.071Z,2.97
2022-11-02T02:38:02.811Z,2.96
2022-11-02T02:39:11.663Z,2.91
2022-11-02T02:40:17.736Z,2.91
2022-11-02T02:41:40.286Z,2.89
2022-11-02T02:42:55.033Z,2.75
2022-11-02T02:44:00.040Z,2.76
2022-11-02T02:45:11.879Z,2.80
2022-11-02T02:46:23.457Z,2.78
2022-11-02T02:47:29.352Z,2.76
2022-11-02T02:48:33.731Z,2.73
2022-11-02T02:49:42.486Z,2.68
2022-11-02T02:50:57.113Z,2.68
2022-11-02T02:52:00.005Z,2.50
2022-11-02T02:53:05.170Z,2.52
2022-11-02T02:54:10.851Z,2.41
2022-11-02T02:55:17.133Z,2.45
2022-11-02T02:56:22.959Z,2.44
2022-11-02T02:57:28.780Z,2.41
2022-11-02T02:58:34.553Z,2.42
2022-11-02T02:59:42.224Z,2.28
2022-11-02T03:00:45.227Z,2.31
2022-11-02T03:01:47.782Z,2.31
2022-11-02T03:02:51.462Z,2.26
2022-11-02T03:03:53.723Z,2.25
2022-11-02T03:04:55.622Z,2.14
2022-11-02T03:07:20.760Z,2.17
2022-11-02T03:08:23.763Z,2.09
2022-11-02T03:09:38.201Z,2.08
2022-11-02T03:10:55.812Z,2.07
2022-11-02T03:12:18.301Z,2.15
2022-11-02T03:13:42.514Z,2.14
2022-11-02T03:15:13.879Z,2.10
2022-11-02T03:16:28.964Z,2.14
2022-11-02T03:18:07.186Z,2.12
2022-11-02T03:19:24.873Z,2.05
2022-11-02T03:20:50.353Z,2.00
2022-11-02T03:22:01.613Z,2.02
2022-11-02T03:23:16.998Z,1.99
2022-11-02T03:24:28.648Z,1.98
2022-11-02T03:25:32.556Z,1.95
2022-11-02T03:28:04.296Z,2.02
2022-11-02T03:29:19.914Z,1.95
2022-11-02T03:30:25.267Z,1.96
2022-11-02T03:31:53.358Z,1.96
2022-11-02T03:34:40.672Z,2.07
2022-11-02T03:35:49.270Z,1.99
2022-11-02T03:37:05.668Z,2.02
2022-11-02T03:38:15.262Z,2.03
2022-11-02T03:40:35.249Z,2.19
2022-11-02T03:41:40.999Z,2.08
2022-11-02T03:42:44.714Z,2.05
2022-11-02T03:43:50.421Z,2.02
2022-11-02T03:44:59.027Z,2.00
2022-11-02T03:46:04.091Z,2.00
2022-11-02T03:47:09.823Z,2.02
2022-11-02T03:48:14.230Z,2.03
2022-11-02T03:49:20.044Z,2.04
2022-11-02T03:50:24.592Z,2.04
2022-11-02T03:51:29.429Z,2.06
2022-11-02T03:52:34.863Z,2.06
2022-11-02T03:53:43.333Z,2.06
2022-11-02T03:54:55.089Z,2.04
2022-11-02T03:56:00.761Z,2.02
2022-11-02T03:57:06.707Z,2.04
2022-11-02T03:58:12.047Z,1.97
2022-11-02T03:59:14.332Z,1.93
2022-11-02T04:00:22.165Z,1.93
2022-11-02T04:01:27.486Z,1.93
2022-11-02T04:02:30.401Z,1.92
2022-11-02T04:03:35.966Z,1.92
2022-11-02T04:06:01.315Z,2.04
2022-11-02T04:07:03.342Z,1.94
2022-11-02T04:08:08.185Z,1.96
2022-11-02T04:09:11.758Z,1.96
2022-11-02T04:10:14.467Z,1.96
2022-11-02T04:11:16.362Z,2.01
2022-11-02T04:12:18.244Z,2.06
2022-11-02T04:13:22.983Z,2.02
2022-11-02T04:14:26.421Z,2.01
2022-11-02T04:15:29.800Z,2.02
2022-11-02T04:16:31.787Z,2.04
2022-11-02T04:17:33.692Z,2.02
2022-11-02T04:18:35.691Z,2.00
2022-11-02T04:19:37.707Z,1.97
2022-11-02T04:20:40.310Z,1.96
2022-11-02T04:21:42.268Z,1.94
2022-11-02T04:22:44.155Z,1.96
2022-11-02T04:23:47.227Z,1.95
2022-11-02T04:24:49.118Z,2.00
2022-11-02T04:25:56.522Z,1.94
2022-11-02T04:26:58.575Z,1.98
2022-11-02T04:28:10.893Z,1.98
2022-11-02T04:29:12.985Z,1.98
2022-11-02T04:30:18.039Z,1.98
2022-11-02T04:31:19.986Z,1.97
2022-11-02T04:32:22.844Z,1.97
2022-11-02T04:33:25.097Z,1.97
2022-11-02T04:34:26.966Z,1.96
2022-11-02T04:35:29.431Z,1.97
2022-11-02T04:36:32.064Z,1.98
2022-11-02T04:37:41.048Z,1.93
2022-11-02T04:38:42.973Z,1.87
2022-11-02T04:39:44.875Z,1.97
2022-11-02T04:40:47.639Z,2.00
2022-11-02T04:41:51.020Z,2.00
2022-11-02T04:42:53.455Z,2.04
2022-11-02T04:43:55.725Z,2.12
2022-11-02T04:44:57.633Z,2.12
2022-11-02T04:45:59.508Z,2.16
2022-11-02T04:47:01.519Z,2.13
2022-11-02T04:48:06.814Z,2.16
2022-11-02T04:49:12.163Z,2.18
2022-11-02T04:50:15.162Z,2.18
2022-11-02T04:51:18.198Z,2.19
2022-11-02T04:52:20.151Z,2.22
2022-11-02T04:53:23.863Z,2.22
2022-11-02T04:54:25.760Z,2.23
2022-11-02T04:55:29.164Z,2.21
2022-11-02T04:56:33.307Z,2.21
2022-11-02T04:57:35.267Z,2.26
2022-11-02T04:58:37.364Z,2.28
2022-11-02T04:59:39.278Z,2.28
2022-11-02T05:00:41.262Z,2.28
2022-11-02T05:01:43.844Z,2.27
2022-11-02T05:02:50.199Z,2.23
2022-11-02T05:03:54.429Z,2.28
2022-11-02T05:04:56.328Z,2.29
2022-11-02T05:05:58.249Z,2.24
2022-11-02T05:07:01.665Z,2.24
2022-11-02T05:08:04.700Z,2.28
2022-11-02T05:09:09.646Z,2.14
2022-11-02T05:10:12.058Z,1.87
2022-11-02T05:11:14.376Z,1.98
2022-11-02T05:12:16.296Z,2.04
2022-11-02T05:13:18.177Z,2.03
2022-11-02T05:14:20.077Z,1.82
2022-11-02T05:15:22.061Z,1.88
2022-11-02T05:16:25.555Z,1.98
2022-11-02T05:17:27.466Z,2.04
2022-11-02T05:18:29.950Z,2.07
2022-11-02T05:19:31.836Z,2.09
2022-11-02T05:20:33.837Z,2.10
2022-11-02T05:21:35.712Z,2.11
2022-11-02T05:22:42.922Z,2.12
2022-11-02T05:23:44.975Z,2.14
2022-11-02T05:24:47.220Z,2.18
2022-11-02T05:27:06.587Z,2.26
2022-11-02T05:28:08.480Z,2.13
2022-11-02T05:29:10.416Z,2.12
2022-11-02T05:30:13.208Z,2.16
2022-11-02T05:31:15.100Z,2.17
2022-11-02T05:32:17.021Z,2.10
2022-11-02T05:33:20.657Z,2.10
2022-11-02T05:34:22.962Z,2.13
2022-11-02T05:35:24.957Z,2.18
2022-11-02T05:36:26.944Z,2.16
2022-11-02T05:37:28.844Z,2.18
2022-11-02T05:38:30.753Z,2.14
2022-11-02T05:39:32.748Z,2.22
2022-11-02T05:40:37.527Z,2.25
2022-11-02T05:41:43.161Z,2.19
2022-11-02T05:42:47.239Z,2.23
2022-11-02T05:43:49.143Z,2.28
2022-11-02T05:44:51.036Z,2.25
2022-11-02T05:47:07.134Z,2.33
2022-11-02T05:48:10.013Z,2.28
2022-11-02T05:49:11.928Z,2.41
2022-11-02T05:50:14.726Z,2.39
2022-11-02T05:51:16.972Z,2.51
2022-11-02T05:52:18.874Z,2.47
2022-11-02T05:53:20.761Z,2.47
2022-11-02T05:54:23.740Z,2.55
2022-11-02T05:55:26.038Z,2.53
2022-11-02T05:56:28.052Z,2.59
2022-11-02T05:57:29.955Z,2.47
2022-11-02T05:58:33.516Z,2.53
2022-11-02T05:59:35.481Z,2.55
2022-11-02T06:00:37.948Z,2.70
2022-11-02T06:01:40.050Z,2.70
2022-11-02T06:02:43.398Z,2.68
2022-11-02T06:03:49.058Z,2.70
2022-11-02T06:04:49.205Z,2.67
2022-11-02T06:06:02.662Z,2.64
2022-11-02T06:07:04.595Z,2.66
2022-11-02T06:08:06.591Z,2.65
2022-11-02T06:09:09.027Z,2.70
2022-11-02T06:10:11.532Z,2.68
2022-11-02T06:11:15.051Z,2.78
2022-11-02T06:12:17.484Z,2.80
2022-11-02T06:13:19.704Z,2.79
2022-11-02T06:14:21.640Z,2.82
2022-11-02T06:15:26.569Z,2.91
2022-11-02T06:16:29.132Z,2.93
2022-11-02T06:17:39.144Z,2.93
2022-11-02T06:18:44.148Z,3.08
2022-11-02T06:19:46.105Z,3.11
2022-11-02T06:20:48.101Z,3.11
2022-11-02T06:21:50.003Z,3.14
2022-11-02T06:22:51.974Z,3.19
2022-11-02T06:23:54.128Z,3.23
2022-11-02T06:24:56.626Z,3.30
2022-11-02T06:26:00.021Z,3.34
2022-11-02T06:27:04.130Z,3.39
2022-11-02T06:28:06.054Z,3.48
2022-11-02T06:29:07.951Z,3.62
2022-11-02T06:30:11.393Z,3.72
2022-11-02T06:31:13.493Z,3.77
2022-11-02T06:32:15.430Z,3.75
2022-11-02T06:33:19.292Z,3.93
2022-11-02T06:34:21.537Z,3.90
2022-11-02T06:35:23.453Z,4.05
2022-11-02T06:36:25.460Z,3.98
2022-11-02T06:37:27.365Z,4.07
2022-11-02T06:38:29.351Z,4.13
2022-11-02T06:39:31.304Z,4.20
2022-11-02T06:40:33.443Z,4.30
2022-11-02T06:41:35.465Z,4.41
2022-11-02T06:42:44.892Z,4.52
2022-11-02T06:43:42.188Z,4.51
2022-11-02T06:44:44.092Z,4.56
2022-11-02T06:45:47.720Z,4.79
2022-11-02T06:46:49.740Z,4.66
2022-11-02T06:47:51.691Z,4.78
2022-11-02T06:48:53.561Z,4.82
2022-11-02T06:49:55.455Z,4.96
2022-11-02T06:50:57.459Z,5.06
2022-11-02T06:51:59.329Z,5.17
2022-11-02T06:53:01.511Z,5.08
2022-11-02T06:54:08.460Z,5.15
2022-11-02T06:55:08.613Z,5.19
2022-11-02T06:56:10.764Z,5.21
2022-11-02T06:57:12.654Z,5.33
2022-11-02T06:58:14.522Z,5.41
2022-11-02T06:59:16.404Z,5.36
2022-11-02T07:00:22.798Z,5.52
2022-11-02T07:01:23.756Z,5.58
2022-11-02T07:02:26.098Z,5.70
2022-11-02T07:03:29.071Z,5.83
2022-11-02T07:04:32.655Z,5.93
2022-11-02T07:05:36.578Z,5.98
2022-11-02T07:06:38.972Z,6.02
2022-11-02T07:07:40.897Z,5.98
2022-11-02T07:08:43.843Z,5.91
2022-11-02T07:09:45.746Z,6.14
2022-11-02T07:10:48.787Z,6.35
2022-11-02T07:11:50.680Z,6.57
2022-11-02T07:12:54.416Z,6.57
2022-11-02T07:13:56.329Z,6.63
2022-11-02T07:14:58.235Z,6.59
2022-11-02T07:16:00.134Z,6.84
2022-11-02T07:17:02.023Z,6.82
2022-11-02T07:18:05.006Z,6.98
2022-11-02T07:19:06.940Z,6.98
2022-11-02T07:20:10.477Z,7.10
2022-11-02T07:21:12.461Z,6.92
2022-11-02T07:22:14.464Z,7.27
2022-11-02T07:23:17.439Z,7.18
2022-11-02T07:24:19.454Z,7.45
2022-11-02T07:25:21.888Z,7.38
2022-11-02T07:26:24.303Z,7.63
2022-11-02T07:27:26.194Z,7.98
2022-11-02T07:28:28.175Z,8.23
2022-11-02T07:29:30.112Z,7.97
2022-11-02T07:30:33.889Z,8.06
2022-11-02T07:31:35.819Z,8.22
2022-11-02T07:32:45.248Z,8.05
2022-11-02T07:33:47.179Z,8.00
2022-11-02T07:34:49.113Z,7.89
2022-11-02T07:35:50.981Z,7.74
2022-11-02T07:36:54.924Z,7.61
2022-11-02T07:37:59.403Z,7.90
2022-11-02T07:39:01.344Z,7.96
2022-11-02T07:40:05.571Z,8.15
2022-11-02T07:41:08.200Z,8.32
2022-11-02T07:42:10.102Z,8.46
2022-11-02T07:43:12.304Z,8.23
2022-11-02T07:44:14.184Z,8.06
2022-11-02T07:45:16.080Z,8.03
2022-11-02T07:46:18.077Z,8.08
2022-11-02T07:47:19.985Z,8.05
2022-11-02T07:48:22.005Z,8.02
2022-11-02T07:49:24.669Z,8.13
2022-11-02T07:50:26.689Z,8.41
2022-11-02T07:51:28.878Z,8.59
2022-11-02T07:52:30.759Z,8.74
2022-11-02T07:53:33.628Z,8.82
2022-11-02T07:54:37.652Z,8.86
2022-11-02T07:55:39.733Z,8.66
2022-11-02T07:56:44.788Z,8.66
2022-11-02T07:57:57.618Z,8.53
2022-11-02T07:58:59.644Z,8.58
2022-11-02T08:00:01.700Z,8.60
2022-11-02T08:01:03.779Z,8.71
2022-11-02T08:02:05.763Z,8.78
2022-11-02T08:03:10.225Z,8.72
2022-11-02T08:04:12.601Z,8.68
2022-11-02T08:05:15.265Z,8.65
2022-11-02T08:06:18.058Z,8.81
2022-11-02T08:07:19.967Z,8.95
2022-11-02T08:08:23.584Z,9.07
2022-11-02T08:09:25.517Z,9.07
2022-11-02T08:10:33.914Z,9.05
2022-11-02T08:11:34.152Z,9.14
2022-11-02T08:12:36.737Z,9.00
2022-11-02T08:13:39.017Z,9.08
2022-11-02T08:14:42.739Z,9.00
2022-11-02T08:15:50.664Z,8.91
2022-11-02T08:16:55.073Z,8.93
2022-11-02T08:18:02.291Z,8.98
2022-11-02T08:19:04.926Z,8.86
2022-11-02T08:20:08.852Z,8.87
2022-11-02T08:21:10.796Z,8.92
2022-11-02T08:22:12.689Z,8.84
2022-11-02T08:23:17.581Z,8.73
2022-11-02T08:24:19.554Z,8.79
2022-11-02T08:25:24.003Z,8.63
2022-11-02T08:26:26.022Z,8.68
2022-11-02T08:27:27.930Z,8.75
2022-11-02T08:28:32.122Z,8.72
2022-11-02T08:29:34.029Z,8.75
2022-11-02T08:30:37.517Z,8.81
2022-11-02T08:31:39.460Z,8.81
2022-11-02T08:32:41.709Z,8.93
2022-11-02T08:33:45.054Z,8.94
2022-11-02T08:34:47.077Z,8.97
2022-11-02T08:35:49.650Z,9.05
2022-11-02T08:36:51.664Z,8.92
2022-11-02T08:37:55.067Z,9.06
2022-11-02T08:38:56.967Z,9.11
2022-11-02T08:39:58.868Z,9.06
2022-11-02T08:41:00.880Z,9.16
2022-11-02T08:42:03.166Z,9.20
2022-11-02T08:43:08.792Z,9.24
2022-11-02T08:44:10.726Z,9.30
2022-11-02T08:45:12.758Z,9.32
2022-11-02T08:46:16.368Z,9.30
2022-11-02T08:47:18.755Z,9.26
2022-11-02T08:48:20.749Z,9.23
2022-11-02T08:49:22.717Z,9.06
2022-11-02T08:50:25.795Z,9.11
2022-11-02T08:51:28.926Z,9.16
2022-11-02T08:52:40.505Z,9.10
2022-11-02T08:53:44.655Z,9.15
2022-11-02T08:54:45.846Z,9.21
2022-11-02T08:55:47.715Z,9.18
2022-11-02T08:56:49.854Z,9.26
2022-11-02T08:57:56.897Z,9.30
2022-11-02T08:58:58.952Z,9.29
2022-11-02T09:00:01.089Z,9.34
2022-11-02T09:01:02.975Z,9.44
2022-11-02T09:02:05.166Z,9.44
2022-11-02T09:03:12.188Z,9.42
2022-11-02T09:04:15.774Z,9.42
2022-11-02T09:05:18.183Z,9.53
2022-11-02T09:06:20.364Z,9.23
2022-11-02T09:07:22.438Z,9.39
2022-11-02T09:09:26.177Z,9.53
2022-11-02T09:10:30.108Z,9.38
2022-11-02T09:11:32.080Z,9.45
2022-11-02T09:12:33.957Z,9.52
2022-11-02T09:13:38.585Z,9.47
2022-11-02T09:14:41.073Z,9.55
2022-11-02T09:15:43.507Z,9.62
2022-11-02T09:16:45.545Z,9.64
2022-11-02T09:17:49.090Z,9.67
2022-11-02T09:18:51.004Z,9.75
2022-11-02T09:19:52.883Z,9.63
2022-11-02T09:20:56.417Z,9.55
2022-11-02T09:21:59.591Z,9.49
2022-11-02T09:23:02.104Z,9.58
2022-11-02T09:24:05.039Z,9.59
2022-11-02T09:25:07.937Z,9.66
2022-11-02T09:26:10.171Z,9.67
2022-11-02T09:27:12.072Z,9.73
2022-11-02T09:28:13.978Z,9.84
2022-11-02T09:29:15.906Z,9.87
2022-11-02T09:30:18.186Z,9.94
2022-11-02T09:31:20.090Z,9.92
2022-11-02T09:32:22.826Z,9.88
2022-11-02T09:33:24.724Z,9.86
2022-11-02T09:34:26.613Z,9.90
2022-11-02T09:35:31.744Z,9.93
2022-11-02T09:36:34.023Z,9.88
2022-11-02T09:37:36.401Z,10.01
2022-11-02T09:38:38.311Z,9.98
2022-11-02T09:39:40.253Z,10.07
2022-11-02T09:41:00.600Z,10.09
2022-11-02T09:43:37.412Z,10.30
2022-11-02T09:45:00.499Z,10.15
2022-11-02T09:46:09.378Z,10.24
2022-11-02T09:48:26.801Z,10.27
2022-11-02T09:49:26.273Z,10.34
2022-11-02T09:51:58.274Z,10.51
2022-11-02T09:53:03.943Z,10.38
2022-11-02T09:54:35.960Z,10.37
2022-11-02T09:55:39.585Z,10.40
2022-11-02T09:56:45.342Z,10.33
2022-11-02T09:57:50.763Z,10.34
2022-11-02T09:59:03.496Z,10.41
2022-11-02T10:00:09.615Z,10.48
2022-11-02T10:01:15.341Z,10.52
2022-11-02T10:02:39.066Z,10.51
2022-11-02T10:03:47.709Z,10.55
2022-11-02T10:05:28.281Z,10.60
2022-11-02T10:06:33.208Z,10.67
2022-11-02T10:08:00.251Z,10.68
2022-11-02T10:09:09.247Z,10.70
2022-11-02T10:10:26.954Z,10.74
2022-11-02T10:11:53.760Z,10.82
2022-11-02T10:13:16.449Z,10.80
2022-11-02T10:14:22.171Z,10.76
2022-11-02T10:15:42.956Z,10.79
2022-11-02T10:16:55.052Z,10.79
2022-11-02T10:17:59.600Z,10.85
2022-11-02T10:19:03.671Z,10.83
2022-11-02T10:20:27.429Z,10.79
2022-11-02T10:21:35.142Z,10.88
2022-11-02T10:22:41.199Z,10.86
2022-11-02T10:23:54.002Z,10.83
2022-11-02T10:24:59.387Z,10.86
2022-11-02T10:26:02.742Z,10.85
2022-11-02T10:27:13.866Z,10.91
2022-11-02T10:28:18.960Z,10.93
2022-11-02T10:30:36.745Z,11.06
2022-11-02T10:31:38.880Z,10.97
2022-11-02T10:33:43.933Z,11.00
2022-11-02T10:34:58.491Z,10.99
2022-11-02T10:36:22.145Z,11.05
2022-11-02T10:37:32.404Z,11.08
2022-11-02T10:38:49.963Z,11.11
2022-11-02T10:40:23.711Z,11.10
2022-11-02T10:41:29.404Z,11.06
2022-11-02T10:42:35.334Z,11.06
2022-11-02T10:43:48.226Z,10.99
2022-11-02T10:45:06.861Z,10.99
2022-11-02T10:47:56.600Z,11.09
2022-11-02T10:49:14.610Z,10.99
2022-11-02T10:52:04.891Z,11.04
2022-11-02T10:53:35.314Z,10.92
2022-11-02T10:54:20.581Z,10.87
2022-11-02T10:56:43.175Z,10.99
2022-11-02T10:57:45.583Z,10.87
2022-11-02T10:59:03.105Z,10.88
2022-11-02T11:00:31.612Z,10.85
2022-11-02T11:01:35.065Z,10.88
2022-11-02T11:02:37.106Z,10.91
2022-11-02T11:04:03.083Z,10.96
2022-11-02T11:05:13.596Z,10.94
2022-11-02T11:06:16.677Z,10.91
2022-11-02T11:08:44.259Z,11.05
2022-11-02T11:09:56.314Z,11.02
2022-11-02T11:11:18.904Z,11.01
2022-11-02T11:12:33.442Z,11.02
2022-11-02T11:15:53.863Z,11.05
2022-11-02T11:19:39.976Z,11.14
2022-11-02T11:20:36.226Z,11.17
2022-11-02T11:21:42.471Z,11.17
2022-11-02T11:22:44.440Z,11.12
2022-11-02T11:23:46.335Z,11.13
2022-11-02T11:24:48.351Z,11.20
2022-11-02T11:27:20.716Z,11.35
2022-11-02T11:28:31.752Z,11.19
2022-11-02T11:29:36.979Z,11.14
2022-11-02T11:30:58.900Z,11.16
2022-11-02T11:31:43.351Z,11.19
2022-11-02T11:32:47.547Z,11.14
2022-11-02T11:33:57.823Z,11.18
2022-11-02T11:35:02.887Z,11.25
2022-11-02T11:36:07.526Z,11.24
2022-11-02T11:37:14.233Z,11.26
2022-11-02T11:38:22.777Z,11.27
2022-11-02T11:39:30.009Z,11.25
2022-11-02T11:40:38.955Z,11.23
2022-11-02T11:41:43.386Z,11.18
2022-11-02T11:42:48.097Z,11.25
2022-11-02T11:43:51.912Z,11.28
2022-11-02T11:45:23.568Z,11.19
2022-11-02T11:46:41.651Z,11.25
2022-11-02T11:47:45.067Z,11.24
2022-11-02T11:48:50.843Z,11.26
2022-11-02T11:50:08.643Z,11.27
2022-11-02T11:51:01.872Z,11.26
2022-11-02T11:52:05.180Z,11.22
2022-11-02T11:53:19.870Z,11.24
2022-11-02T11:55:55.095Z,11.31
2022-11-02T11:57:00.766Z,11.26
2022-11-02T11:58:08.884Z,11.22
2022-11-02T11:59:23.736Z,11.20
2022-11-02T12:00:28.012Z,11.18
2022-11-02T12:01:38.773Z,11.19
2022-11-02T12:02:44.544Z,11.22
2022-11-02T12:03:59.270Z,11.19
2022-11-02T12:05:16.597Z,11.21
2022-11-02T12:06:43.811Z,11.17
2022-11-02T12:08:06.445Z,11.19
2022-11-02T12:09:18.286Z,11.22
2022-11-02T12:10:51.768Z,11.18
2022-11-02T12:12:18.906Z,11.15
2022-11-02T12:13:47.758Z,11.06
2022-11-02T12:15:13.336Z,11.08
2022-11-02T12:16:28.514Z,11.04
2022-11-02T12:17:43.518Z,11.01
2022-11-02T12:19:09.084Z,10.97
2022-11-02T12:20:20.784Z,10.97
2022-11-02T12:21:35.872Z,10.94
2022-11-02T12:22:50.727Z,10.97
2022-11-02T12:24:04.780Z,10.93
2022-11-02T12:25:31.688Z,10.96
2022-11-02T12:28:12.562Z,10.99
2022-11-02T12:29:47.449Z,10.88
2022-11-02T12:30:59.337Z,10.88
2022-11-02T12:32:24.767Z,10.85
2022-11-02T12:33:42.560Z,10.86
2022-11-02T12:35:27.368Z,10.82
2022-11-02T12:36:20.480Z,10.78
2022-11-02T12:37:40.328Z,10.80
2022-11-02T12:38:58.777Z,10.79
2022-11-02T12:40:31.979Z,10.79
2022-11-02T12:41:55.764Z,10.77
2022-11-02T12:43:10.026Z,10.74
2022-11-02T12:44:18.679Z,10.72
2022-11-02T12:45:42.443Z,10.67
2022-11-02T12:47:00.730Z,10.70
2022-11-02T12:48:05.517Z,10.67
2022-11-02T12:49:40.590Z,10.68
2022-11-02T12:50:54.952Z,10.64
2022-11-02T12:52:15.697Z,10.65
2022-11-02T12:53:40.708Z,10.67
2022-11-02T12:54:50.133Z,10.70
2022-11-02T12:55:55.827Z,10.61
2022-11-02T12:56:58.188Z,10.64
2022-11-02T12:58:07.218Z,10.56
2022-11-02T13:00:32.265Z,10.70
2022-11-02T13:01:41.421Z,10.54
2022-11-02T13:03:03.207Z,10.59
2022-11-02T14:27:44.036Z,8.89
2022-11-02T14:28:46.060Z,8.82
2022-11-02T14:29:52.179Z,8.79
2022-11-02T14:31:07.145Z,8.78
2022-11-02T14:32:18.802Z,8.76
2022-11-02T14:33:41.466Z,8.75
2022-11-02T14:34:56.250Z,8.73
2022-11-02T14:36:01.948Z,8.71
2022-11-02T14:37:25.558Z,8.69
2022-11-02T14:39:59.548Z,8.76
2022-11-02T14:41:20.685Z,8.65
2022-11-02T14:42:38.643Z,8.64
2022-11-02T14:44:02.735Z,8.62
2022-11-02T14:45:14.460Z,8.63
2022-11-02T14:46:38.545Z,8.61
2022-11-02T14:47:41.483Z,8.60
2022-11-02T14:48:53.117Z,8.57
2022-11-02T14:50:01.755Z,8.56
2022-11-02T14:51:07.571Z,8.55
2022-11-02T14:52:16.589Z,8.55
2022-11-02T14:53:25.198Z,8.56
2022-11-02T14:54:30.657Z,8.54
2022-11-02T14:55:35.678Z,8.53
2022-11-02T14:56:50.127Z,8.51
2022-11-02T14:57:55.867Z,8.49
2022-11-02T14:58:59.076Z,8.50
2022-11-02T15:00:05.074Z,8.51
2022-11-02T15:01:11.039Z,8.50
2022-11-02T15:02:37.407Z,8.48
2022-11-02T15:03:42.497Z,8.49
2022-11-02T15:04:53.845Z,8.46
2022-11-02T15:06:08.802Z,8.45
2022-11-02T15:07:14.749Z,8.45
2022-11-02T15:08:23.664Z,8.44
2022-11-02T15:09:51.832Z,8.44
2022-11-02T15:10:54.388Z,8.43
2022-11-02T15:11:57.601Z,8.42
2022-11-02T15:13:22.674Z,8.40
2022-11-02T15:14:37.754Z,8.41
2022-11-02T15:15:39.993Z,8.41
2022-11-02T15:16:42.108Z,8.41
2022-11-02T15:17:47.845Z,8.41
2022-11-02T15:18:50.623Z,8.39
2022-11-02T15:19:58.983Z,8.39
2022-11-02T15:21:16.880Z,8.36
2022-11-02T15:22:48.861Z,8.34
2022-11-02T15:24:03.384Z,8.33
2022-11-02T15:25:15.120Z,8.32
2022-11-02T15:27:59.656Z,8.38
2022-11-02T15:29:04.987Z,8.28
2022-11-02T15:30:14.258Z,8.28
2022-11-02T15:31:25.687Z,8.26
2022-11-02T15:32:27.448Z,8.28
2022-11-02T15:33:45.257Z,8.27
2022-11-02T15:34:51.352Z,8.26
2022-11-02T15:35:54.354Z,8.27
2022-11-02T15:36:59.172Z,8.27
2022-11-02T15:38:16.972Z,8.28
2022-11-02T15:39:11.219Z,8.29
2022-11-02T15:40:29.281Z,8.28
2022-11-02T15:41:41.765Z,8.27
2022-11-02T15:42:51.093Z,8.29
2022-11-02T15:44:02.879Z,8.30
2022-11-02T15:45:41.689Z,8.29
2022-11-02T15:46:31.067Z,8.30
2022-11-02T15:47:53.448Z,8.30
2022-11-02T15:49:14.222Z,8.30
2022-11-02T15:50:23.117Z,8.29
2022-11-02T15:53:22.852Z,8.39
2022-11-02T15:54:17.095Z,8.29
2022-11-02T15:55:44.358Z,8.28
2022-11-02T15:57:07.974Z,8.28
2022-11-02T15:58:22.720Z,8.29
2022-11-02T15:59:37.353Z,8.28
2022-11-02T16:00:39.988Z,8.27
2022-11-02T16:01:42.648Z,8.27
2022-11-02T16:02:51.463Z,8.27
2022-11-02T16:04:06.065Z,8.28
2022-11-02T16:05:18.053Z,8.31
2022-11-02T16:06:30.179Z,8.29
2022-11-02T16:07:50.303Z,8.29
2022-11-02T16:08:38.757Z,8.30
2022-11-02T16:09:40.824Z,8.27
2022-11-02T16:10:43.404Z,8.29
2022-11-02T16:11:49.260Z,8.30
2022-11-02T16:13:15.921Z,8.28
2022-11-02T16:14:18.409Z,8.29
2022-11-02T16:15:20.580Z,8.28
2022-11-02T16:16:22.763Z,8.26
2022-11-02T16:17:29.575Z,8.25
2022-11-02T16:18:39.293Z,8.24
2022-11-02T16:19:41.266Z,8.21
2022-11-02T16:20:45.119Z,8.22
2022-11-02T16:21:50.261Z,8.20
2022-11-02T16:22:58.661Z,8.21
2022-11-02T16:24:01.031Z,8.19
2022-11-02T16:25:09.821Z,8.13
2022-11-02T16:26:19.565Z,8.13
2022-11-02T16:27:22.121Z,8.15
2022-11-02T16:28:27.301Z,8.15
2022-11-02T16:29:31.685Z,8.12
2022-11-02T16:30:34.019Z,8.10
2022-11-02T16:31:37.300Z,8.10
2022-11-02T16:32:41.709Z,8.09
2022-11-02T16:33:50.523Z,8.09
2022-11-02T16:34:52.747Z,8.09
2022-11-02T16:35:55.557Z,8.08
2022-11-02T16:37:00.238Z,8.09
2022-11-02T16:38:03.360Z,8.11
2022-11-02T16:39:15.729Z,8.10
2022-11-02T16:40:19.805Z,8.14
2022-11-02T16:41:27.652Z,8.14
2022-11-02T16:42:29.926Z,8.12
2022-11-02T16:43:33.072Z,8.16
2022-11-02T16:44:35.600Z,8.15
2022-11-02T16:45:42.276Z,8.16